Time;durP1;ratioP1;P1;durP2;ratioP2;P2;SDS_P1;SDS_P2;PMS_P1;PMS_P2;Temp;Humidity;BMP_temperature;BMP_pressure;BME280_temperature;BME280_humidity;BME280_pressure;Samples;Min_cycle;Max_cycle;Signal;HPM_P1;HPM_P2
2022/12/04 00:00:39;;;;;;;19.92;9.10;;;2.30;99.90;;;;;;5010300;28;20034;-74
2022/12/04 00:03:05;;;;;;;19.02;9.20;;;2.30;99.90;;;;;;5011670;28;20057;-73
2022/12/04 00:05:37;;;;;;;21.20;8.85;;;2.30;99.90;;;;;;5009828;28;20026;-74
2022/12/04 00:08:02;;;;;;;18.75;8.73;;;2.30;99.90;;;;;;5009024;28;20503;-75
2022/12/04 00:10:28;;;;;;;20.00;9.23;;;2.30;99.90;;;;;;5004295;28;20065;-73
2022/12/04 00:12:53;;;;;;;16.58;8.05;;;2.40;99.90;;;;;;5011428;28;20125;-73
2022/12/04 00:15:19;;;;;;;18.33;9.00;;;2.30;99.90;;;;;;5007176;28;20057;-72
2022/12/04 00:17:48;;;;;;;19.33;9.25;;;2.40;99.90;;;;;;5008467;28;20470;-75
2022/12/04 00:20:14;;;;;;;20.85;9.80;;;2.30;99.90;;;;;;5007945;28;20430;-76
2022/12/04 00:22:39;;;;;;;21.58;10.05;;;2.30;99.90;;;;;;5011163;28;20045;-73
2022/12/04 00:25:05;;;;;;;16.23;8.90;;;2.30;99.90;;;;;;5009020;28;20030;-74
2022/12/04 00:27:31;;;;;;;20.85;9.65;;;2.30;99.90;;;;;;5007908;28;20382;-73
2022/12/04 00:30:03;;;;;;;21.75;9.68;;;2.30;99.90;;;;;;5008129;28;20092;-73
2022/12/04 00:32:31;;;;;;;18.65;8.98;;;2.30;99.90;;;;;;5010652;28;20057;-73
2022/12/04 00:34:57;;;;;;;21.77;10.00;;;2.30;99.90;;;;;;5005622;28;20033;-75
2022/12/04 00:37:23;;;;;;;20.88;9.18;;;2.20;99.90;;;;;;5003949;28;20037;-75
2022/12/04 00:39:49;;;;;;;15.93;7.97;;;2.30;99.90;;;;;;5008647;28;20030;-75
2022/12/04 00:42:14;;;;;;;20.77;9.40;;;2.30;99.90;;;;;;5008847;28;20030;-75
2022/12/04 00:44:52;;;;;;;17.95;9.00;;;2.30;99.90;;;;;;5007261;28;20030;-75
2022/12/04 00:47:18;;;;;;;21.20;8.98;;;2.40;99.90;;;;;;5007618;28;20139;-74
2022/12/04 00:49:52;;;;;;;23.55;10.15;;;2.40;99.90;;;;;;5007106;28;20156;-74
2022/12/04 00:52:18;;;;;;;17.02;8.38;;;2.40;99.90;;;;;;5007045;28;20041;-75
2022/12/04 00:54:44;;;;;;;19.25;9.13;;;2.40;99.90;;;;;;5003644;28;20037;-75
2022/12/04 00:57:12;;;;;;;20.90;9.30;;;2.40;99.90;;;;;;5008575;28;20033;-73
2022/12/04 00:59:41;;;;;;;20.67;9.23;;;2.40;99.90;;;;;;5008472;28;20394;-75
2022/12/04 01:02:09;;;;;;;17.83;8.68;;;2.50;99.90;;;;;;5007796;28;20059;-75
2022/12/04 01:04:38;;;;;;;19.58;9.85;;;2.50;99.90;;;;;;5009166;28;20030;-73
2022/12/04 01:07:04;;;;;;;20.10;9.30;;;2.50;99.90;;;;;;5005974;28;20050;-74
2022/12/04 01:09:39;;;;;;;18.23;9.02;;;2.50;99.90;;;;;;5010185;28;20034;-74
2022/12/04 01:12:05;;;;;;;20.77;8.90;;;2.50;99.90;;;;;;5004530;28;20623;-75
2022/12/04 01:14:30;;;;;;;19.40;8.93;;;2.50;99.90;;;;;;5002657;28;20030;-74
2022/12/04 01:16:57;;;;;;;18.65;9.15;;;2.50;99.90;;;;;;5009245;28;20048;-73
2022/12/04 01:19:28;;;;;;;21.23;9.48;;;2.50;99.90;;;;;;5009000;28;20120;-73
2022/12/04 01:21:54;;;;;;;19.52;9.65;;;2.50;99.90;;;;;;5010092;28;20034;-74
2022/12/04 01:24:23;;;;;;;19.73;8.93;;;2.50;99.90;;;;;;5004028;28;20027;-74
2022/12/04 01:26:48;;;;;;;20.20;9.10;;;2.50;99.90;;;;;;5008423;28;20018;-74
2022/12/04 01:29:17;;;;;;;19.17;8.82;;;2.60;99.90;;;;;;5007337;28;20048;-72
2022/12/04 01:31:42;;;;;;;17.95;8.10;;;2.50;99.90;;;;;;5004028;28;20030;-74
2022/12/04 01:34:14;;;;;;;18.38;8.55;;;2.50;99.90;;;;;;5006270;28;20088;-74
2022/12/04 01:36:39;;;;;;;18.27;8.70;;;2.60;99.90;;;;;;5007805;28;20030;-76
2022/12/04 01:39:08;;;;;;;19.05;8.25;;;2.60;99.90;;;;;;5009547;28;20037;-73
2022/12/04 01:41:37;;;;;;;17.98;8.63;;;2.50;99.90;;;;;;5013244;28;20382;-76
2022/12/04 01:44:24;;;;;;;17.48;8.25;;;2.50;99.90;;;;;;5009459;28;20045;-77
2022/12/04 01:46:55;;;;;;;18.05;8.18;;;2.50;99.90;;;;;;5012445;28;20038;-76
2022/12/04 01:49:37;;;;;;;15.90;7.57;;;2.50;99.90;;;;;;5006521;28;20026;-74
2022/12/04 01:52:09;;;;;;;18.23;8.32;;;2.50;99.90;;;;;;5009729;28;20525;-75
2022/12/04 01:54:46;;;;;;;16.98;7.82;;;2.60;99.90;;;;;;5019201;28;20037;-75
2022/12/04 01:57:13;;;;;;;17.95;8.52;;;2.50;99.90;;;;;;5011411;28;20083;-75
2022/12/04 01:59:44;;;;;;;20.52;8.82;;;2.60;99.90;;;;;;5008686;28;20025;-75
2022/12/04 02:02:13;;;;;;;18.73;9.02;;;2.60;99.90;;;;;;5007841;28;20391;-76
2022/12/04 02:04:41;;;;;;;16.98;8.07;;;2.60;99.90;;;;;;5011721;28;20383;-76
2022/12/04 02:07:06;;;;;;;20.65;8.85;;;2.60;99.90;;;;;;5007429;28;20026;-76
2022/12/04 02:09:34;;;;;;;21.38;10.20;;;2.60;99.90;;;;;;5012688;28;20037;-76
2022/12/04 02:12:36;;;;;;;23.08;10.35;;;2.60;99.90;;;;;;5010476;28;20027;-76
2022/12/04 02:15:27;;;;;;;16.30;8.68;;;2.50;99.90;;;;;;5011835;28;20030;-76
2022/12/04 02:17:58;;;;;;;18.52;8.80;;;2.50;99.90;;;;;;5009581;28;20084;-76
2022/12/04 02:20:45;;;;;;;21.27;10.32;;;2.50;99.90;;;;;;5013215;28;20090;-76
2022/12/04 02:23:45;;;;;;;16.73;8.23;;;2.40;99.90;;;;;;5012175;28;20037;-76
2022/12/04 02:26:16;;;;;;;18.30;7.68;;;2.40;99.90;;;;;;5007853;28;20026;-76
2022/12/04 02:29:05;;;;;;;18.85;8.63;;;2.40;99.90;;;;;;5007500;28;20129;-77
2022/12/04 02:31:43;;;;;;;16.63;8.80;;;2.40;99.90;;;;;;5009483;28;20030;-77
2022/12/04 02:34:11;;;;;;;18.45;8.20;;;2.50;99.90;;;;;;4998168;28;20553;-75
2022/12/04 02:36:49;;;;;;;21.75;9.07;;;2.50;99.90;;;;;;5024840;28;20041;-75
2022/12/04 02:39:43;;;;;;;21.90;10.13;;;2.50;99.90;;;;;;5009105;28;20418;-76
2022/12/04 02:42:34;;;;;;;22.30;9.93;;;2.50;99.90;;;;;;4999311;28;20042;-76
2022/12/04 02:45:28;;;;;;;23.17;10.57;;;2.50;99.90;;;;;;4986082;28;20094;-76
2022/12/04 02:47:56;;;;;;;21.60;9.73;;;2.50;99.90;;;;;;5005722;28;20041;-76
2022/12/04 02:50:26;;;;;;;23.45;9.95;;;2.50;99.90;;;;;;5009155;28;20033;-76
2022/12/04 02:53:04;;;;;;;18.90;9.98;;;2.40;99.90;;;;;;5006109;28;20030;-76
2022/12/04 02:55:40;;;;;;;18.77;9.95;;;2.40;99.90;;;;;;5011294;28;20076;-76
2022/12/04 02:58:15;;;;;;;20.60;9.77;;;2.40;99.90;;;;;;5008868;28;20030;-75
2022/12/04 03:00:42;;;;;;;19.25;9.45;;;2.30;99.90;;;;;;5007645;28;20096;-75
2022/12/04 03:03:23;;;;;;;27.38;11.63;;;2.30;99.90;;;;;;5008899;28;20057;-75
2022/12/04 03:05:58;;;;;;;22.63;10.45;;;2.20;99.90;;;;;;5010463;28;20483;-75
2022/12/04 03:08:48;;;;;;;24.35;10.45;;;2.20;99.90;;;;;;5007221;28;20029;-75
2022/12/04 03:11:13;;;;;;;23.98;11.38;;;2.10;99.90;;;;;;5009030;28;20080;-75
2022/12/04 03:13:51;;;;;;;27.55;12.45;;;2.10;99.90;;;;;;5010117;28;20038;-76
2022/12/04 03:16:28;;;;;;;27.02;11.65;;;2.10;99.90;;;;;;5010824;28;20390;-76
2022/12/04 03:19:05;;;;;;;25.52;12.10;;;2.10;99.90;;;;;;5020062;28;20552;-75
2022/12/04 03:21:37;;;;;;;25.90;12.18;;;2.10;99.90;;;;;;5008144;28;20029;-76
2022/12/04 03:24:09;;;;;;;24.17;12.40;;;2.10;99.90;;;;;;5003873;28;20029;-76
2022/12/04 03:26:54;;;;;;;26.88;11.05;;;2.10;99.90;;;;;;5009823;28;20475;-76
2022/12/04 03:29:34;;;;;;;23.25;11.75;;;2.10;99.90;;;;;;5013319;28;20041;-75
2022/12/04 03:32:11;;;;;;;26.63;12.25;;;2.10;99.90;;;;;;5010945;28;20026;-76
2022/12/04 03:34:52;;;;;;;28.02;12.63;;;2.10;99.90;;;;;;5001970;28;20364;-75
2022/12/04 03:37:46;;;;;;;27.55;11.98;;;2.00;99.90;;;;;;5009087;28;20386;-75
2022/12/04 03:40:44;;;;;;;28.13;11.65;;;2.10;99.90;;;;;;5000942;28;20049;-76
2022/12/04 03:43:42;;;;;;;26.13;12.38;;;2.10;99.90;;;;;;5002722;28;20487;-76
2022/12/04 03:46:44;;;;;;;26.83;12.55;;;2.00;99.90;;;;;;5007289;28;20148;-75
2022/12/04 03:49:28;;;;;;;25.20;11.57;;;2.00;99.90;;;;;;5005950;28;20057;-75
2022/12/04 03:51:57;;;;;;;;;;;2.00;99.90;;;;;;5005352;28;20025;-75
2022/12/04 03:54:31;;;;;;;24.52;11.55;;;2.00;99.90;;;;;;5010416;28;20389;-75
2022/12/04 03:57:02;;;;;;;;;;;1.90;99.90;;;;;;5011780;28;20045;-75
2022/12/04 03:59:55;;;;;;;24.63;11.27;;;2.00;99.90;;;;;;5005854;28;19913;-76
2022/12/04 04:02:27;;;;;;;27.35;11.85;;;2.00;99.90;;;;;;5008418;28;20487;-74
2022/12/04 04:04:56;;;;;;;26.05;11.63;;;2.00;99.90;;;;;;5002568;28;20021;-75
2022/12/04 04:07:39;;;;;;;26.45;12.30;;;2.00;99.90;;;;;;4991046;28;20025;-75
2022/12/04 04:10:16;;;;;;;26.52;11.98;;;2.00;99.90;;;;;;5010941;28;20429;-75
2022/12/04 04:24:28;;;;;;;23.35;9.93;;;2.10;99.90;;;;;;5005919;28;20106;-75
2022/12/04 04:26:56;;;;;;;18.55;8.43;;;2.20;99.90;;;;;;5008917;28;20474;-74
2022/12/04 04:29:22;;;;;;;21.83;9.85;;;2.20;99.90;;;;;;5016062;23;20052;-77
2022/12/04 04:32:00;;;;;;;17.15;8.70;;;2.20;99.90;;;;;;4989927;28;20039;-77
2022/12/04 04:34:36;;;;;;;15.68;8.02;;;2.20;99.90;;;;;;4989908;28;20553;-77
2022/12/04 04:37:19;;;;;;;15.93;7.88;;;2.20;99.90;;;;;;4993363;28;20061;-76
2022/12/04 04:40:09;;;;;;;17.47;7.90;;;2.30;99.90;;;;;;4987693;28;20078;-78
2022/12/04 04:42:47;;;;;;;17.23;8.48;;;2.30;99.90;;;;;;4997864;23;20316;-76
2022/12/04 04:45:20;;;;;;;16.85;7.93;;;2.30;99.90;;;;;;4984036;28;20019;-76
2022/12/04 04:47:57;;;;;;;18.75;8.13;;;2.30;99.90;;;;;;4984257;28;20491;-76
2022/12/04 04:50:23;;;;;;;16.77;8.13;;;2.30;99.90;;;;;;4975696;28;20034;-76
2022/12/04 04:52:54;;;;;;;17.15;8.18;;;2.30;99.90;;;;;;4979098;28;20034;-76
2022/12/04 04:55:21;;;;;;;17.65;8.65;;;2.40;99.90;;;;;;4982702;28;20773;-76
2022/12/04 04:57:47;;;;;;;18.80;8.60;;;2.40;99.90;;;;;;4986176;28;20030;-76
2022/12/04 05:00:17;;;;;;;19.63;8.93;;;2.40;99.90;;;;;;4983251;28;20034;-76
2022/12/04 05:02:43;;;;;;;18.73;9.57;;;2.40;99.90;;;;;;4987579;28;20081;-77
2022/12/04 05:05:12;;;;;;;16.67;8.90;;;2.40;99.90;;;;;;4986806;28;20467;-77
2022/12/04 05:07:38;;;;;;;17.98;8.63;;;2.40;99.90;;;;;;4980266;28;20038;-77
2022/12/04 05:10:04;;;;;;;20.77;8.93;;;2.40;99.90;;;;;;4985073;28;20047;-76
2022/12/04 05:12:30;;;;;;;22.38;9.55;;;2.40;99.90;;;;;;4988149;28;20033;-76
2022/12/04 05:14:56;;;;;;;21.02;9.10;;;2.40;99.90;;;;;;4987333;28;20615;-76
2022/12/04 05:17:22;;;;;;;16.95;7.97;;;2.40;99.90;;;;;;4984416;28;20038;-76
2022/12/04 05:19:53;;;;;;;16.95;8.13;;;2.40;99.90;;;;;;4988771;28;20037;-76
2022/12/04 05:22:21;;;;;;;15.93;8.15;;;2.40;99.90;;;;;;4989957;28;20027;-76
2022/12/04 05:24:47;;;;;;;17.08;7.75;;;2.40;99.90;;;;;;4985186;28;20027;-77
2022/12/04 05:27:13;;;;;;;14.93;7.68;;;2.40;99.90;;;;;;4989234;28;20064;-77
2022/12/04 05:29:38;;;;;;;16.75;7.80;;;2.40;99.90;;;;;;4988314;28;20085;-77
2022/12/04 05:32:04;;;;;;;16.95;8.88;;;2.40;99.90;;;;;;4987204;28;20063;-77
2022/12/04 05:34:30;;;;;;;17.13;8.32;;;2.40;99.90;;;;;;4987402;28;20769;-77
2022/12/04 05:36:56;;;;;;;15.45;7.57;;;2.50;99.90;;;;;;4987266;28;20027;-78
2022/12/04 05:39:21;;;;;;;15.40;8.07;;;2.40;99.90;;;;;;4987135;28;20046;-77
2022/12/04 05:41:47;;;;;;;16.60;8.15;;;2.40;99.90;;;;;;4984666;28;20019;-77
2022/12/04 05:44:13;;;;;;;17.15;7.80;;;2.40;99.90;;;;;;4980972;28;20034;-77
2022/12/04 05:46:38;;;;;;;16.13;8.02;;;2.40;99.90;;;;;;4985706;28;20040;-77
2022/12/04 05:49:04;;;;;;;15.93;7.75;;;2.40;99.90;;;;;;4987466;28;20105;-77
2022/12/04 05:51:29;;;;;;;14.52;7.38;;;2.50;99.90;;;;;;4986331;28;20034;-77
2022/12/04 05:53:55;;;;;;;15.93;7.47;;;2.40;99.90;;;;;;4987310;28;20537;-77
2022/12/04 05:56:21;;;;;;;17.58;8.40;;;2.40;99.90;;;;;;4987030;28;20041;-76
2022/12/04 05:58:46;;;;;;;16.75;7.88;;;2.40;99.90;;;;;;4981968;28;20023;-77
2022/12/04 06:01:18;;;;;;;16.75;8.35;;;2.40;99.90;;;;;;4984303;28;20023;-77
2022/12/04 06:03:44;;;;;;;16.70;8.00;;;2.40;99.90;;;;;;4982802;28;20034;-77
2022/12/04 06:06:37;;;;;;;14.93;7.35;;;2.40;99.90;;;;;;4984552;28;20049;-77
2022/12/04 06:09:06;;;;;;;14.02;7.10;;;2.40;99.90;;;;;;4985900;28;20046;-76
2022/12/04 06:11:34;;;;;;;15.05;7.63;;;2.40;99.90;;;;;;4988698;28;20027;-77
2022/12/04 06:14:01;;;;;;;16.63;7.65;;;2.40;99.90;;;;;;4984232;28;20042;-77
2022/12/04 06:16:33;;;;;;;15.63;7.55;;;2.40;99.90;;;;;;4985836;28;20513;-77
2022/12/04 06:19:03;;;;;;;19.08;8.57;;;2.50;99.90;;;;;;4984746;28;20479;-77
2022/12/04 06:21:33;;;;;;;16.23;7.93;;;2.40;99.90;;;;;;4986750;28;20047;-77
2022/12/04 06:23:58;;;;;;;15.65;7.80;;;2.50;99.90;;;;;;4986755;28;20021;-77
2022/12/04 06:26:24;;;;;;;14.80;7.25;;;2.40;99.90;;;;;;4985898;28;20398;-77
2022/12/04 06:28:57;;;;;;;14.75;7.18;;;2.40;99.90;;;;;;4984212;28;20041;-77
2022/12/04 06:31:25;;;;;;;16.77;7.90;;;2.40;99.90;;;;;;4980619;28;20026;-77
2022/12/04 06:33:52;;;;;;;16.10;8.18;;;2.40;99.90;;;;;;4984027;28;20042;-77
2022/12/04 06:36:20;;;;;;;18.50;9.43;;;2.40;99.90;;;;;;4986440;28;20050;-76
2022/12/04 06:38:46;;;;;;;15.43;7.43;;;2.40;99.90;;;;;;4982963;28;20023;-76
2022/12/04 06:41:14;;;;;;;20.08;9.80;;;2.30;99.90;;;;;;4986257;28;20514;-77
2022/12/04 06:43:40;;;;;;;16.45;8.32;;;2.30;99.90;;;;;;4984225;28;20035;-76
2022/12/04 06:46:11;;;;;;;18.90;8.88;;;2.20;99.90;;;;;;4984325;28;20379;-77
2022/12/04 06:48:37;;;;;;;22.70;9.75;;;2.20;99.90;;;;;;4985334;28;20041;-77
2022/12/04 06:51:23;;;;;;;20.60;9.38;;;2.20;99.90;;;;;;4988720;28;20030;-76
2022/12/04 06:53:49;;;;;;;21.20;9.88;;;2.20;99.90;;;;;;4986270;28;20141;-77
2022/12/04 06:56:18;;;;;;;23.75;9.98;;;2.10;99.90;;;;;;4986506;28;20084;-77
2022/12/04 06:58:45;;;;;;;21.25;10.02;;;2.10;99.90;;;;;;4980174;28;20566;-77
2022/12/04 07:01:13;;;;;;;18.10;9.18;;;2.10;99.90;;;;;;4976770;28;20039;-78
2022/12/04 07:03:40;;;;;;;18.58;9.48;;;2.10;99.90;;;;;;4982692;28;20022;-76
2022/12/04 07:06:16;;;;;;;20.85;9.90;;;2.10;99.90;;;;;;4987158;28;20029;-77
2022/12/04 07:08:44;;;;;;;19.70;9.75;;;2.10;99.90;;;;;;4987434;28;20090;-77
2022/12/04 07:11:10;;;;;;;21.98;9.95;;;2.10;99.90;;;;;;4987016;28;20053;-76
2022/12/04 07:13:36;;;;;;;19.63;10.07;;;2.10;99.90;;;;;;4983116;28;20023;-77
2022/12/04 07:16:05;;;;;;;18.25;9.80;;;2.10;99.90;;;;;;4986843;28;20589;-77
2022/12/04 07:18:31;;;;;;;21.67;9.18;;;2.10;99.90;;;;;;4970822;28;20038;-77
2022/12/04 07:20:57;;;;;;;21.33;9.45;;;2.10;99.90;;;;;;4986796;28;20503;-77
2022/12/04 07:23:23;;;;;;;18.45;9.02;;;2.00;99.90;;;;;;4987243;28;20039;-76
2022/12/04 07:25:49;;;;;;;18.95;9.77;;;2.00;99.90;;;;;;4987868;28;20065;-77
2022/12/04 07:28:15;;;;;;;20.60;8.70;;;2.10;99.90;;;;;;4983620;28;20037;-77
2022/12/04 07:30:41;;;;;;;18.23;9.05;;;2.00;99.90;;;;;;4985760;28;20108;-76
2022/12/04 07:33:06;;;;;;;17.00;8.18;;;2.00;99.90;;;;;;4984010;28;20450;-77
2022/12/04 07:35:32;;;;;;;18.95;9.18;;;2.00;99.90;;;;;;4987424;28;20491;-77
2022/12/04 07:37:58;;;;;;;18.20;8.52;;;2.00;99.90;;;;;;4986938;28;20026;-77
2022/12/04 07:40:24;;;;;;;17.00;8.50;;;2.00;99.90;;;;;;4982201;28;20027;-77
2022/12/04 07:42:50;;;;;;;17.55;8.40;;;2.00;99.90;;;;;;4985849;28;20031;-77
2022/12/04 07:45:15;;;;;;;18.00;8.20;;;2.00;99.90;;;;;;4983755;28;20141;-77
2022/12/04 07:47:41;;;;;;;18.20;9.00;;;2.00;99.90;;;;;;4986940;28;20506;-77
2022/12/04 07:50:07;;;;;;;19.98;9.20;;;2.00;99.90;;;;;;4980910;28;20140;-77
2022/12/04 07:52:37;;;;;;;20.58;9.77;;;1.90;99.90;;;;;;4980021;28;20034;-77
2022/12/04 07:55:04;;;;;;;19.63;8.95;;;2.00;99.90;;;;;;4982244;28;20126;-77
2022/12/04 07:57:29;;;;;;;17.48;8.13;;;1.90;99.90;;;;;;4987929;28;20030;-77
2022/12/04 07:59:55;;;;;;;18.33;8.70;;;1.90;99.90;;;;;;4979778;28;20097;-77
2022/12/04 08:02:20;;;;;;;19.05;9.02;;;1.90;99.90;;;;;;4984397;28;20023;-77
2022/12/04 08:04:46;;;;;;;18.63;9.07;;;1.90;99.90;;;;;;4981054;28;20031;-77
2022/12/04 08:07:12;;;;;;;22.80;9.82;;;1.90;99.90;;;;;;4988767;28;20038;-79
2022/12/04 08:09:38;;;;;;;20.40;9.15;;;1.90;99.90;;;;;;5001562;28;20495;-79
2022/12/04 08:12:04;;;;;;;20.52;10.07;;;2.00;99.90;;;;;;5000364;28;20061;-76
2022/12/04 08:14:29;;;;;;;20.50;10.23;;;2.00;99.90;;;;;;5001064;28;20027;-79
2022/12/04 08:16:55;;;;;;;22.88;10.25;;;2.00;99.90;;;;;;5003118;28;20045;-77
2022/12/04 08:19:21;;;;;;;19.23;8.98;;;2.00;99.90;;;;;;4997123;28;20058;-77
2022/12/04 08:21:47;;;;;;;22.52;9.80;;;2.10;99.90;;;;;;4982235;28;20029;-78
2022/12/04 08:24:13;;;;;;;22.38;9.75;;;2.10;99.90;;;;;;4978756;28;20019;-76
2022/12/04 08:26:38;;;;;;;21.35;10.05;;;2.10;99.90;;;;;;4974651;28;20145;-76
2022/12/04 08:29:05;;;;;;;19.25;9.43;;;2.10;99.90;;;;;;4978446;28;20117;-79
2022/12/04 08:31:33;;;;;;;18.50;8.98;;;2.10;99.90;;;;;;4984854;28;20031;-79
2022/12/04 08:34:02;;;;;;;17.13;8.55;;;2.10;99.90;;;;;;4984054;28;20109;-78
2022/12/04 08:36:28;;;;;;;22.25;10.02;;;2.10;99.90;;;;;;4974533;28;20038;-79
2022/12/04 08:38:55;;;;;;;19.70;9.32;;;2.10;99.90;;;;;;4985269;28;20026;-78
2022/12/04 08:41:22;;;;;;;20.20;10.40;;;2.10;99.90;;;;;;4980959;28;20018;-78
2022/12/04 08:43:48;;;;;;;19.50;8.88;;;2.10;99.90;;;;;;4987396;28;20122;-79
2022/12/04 08:46:16;;;;;;;21.13;10.10;;;2.10;99.90;;;;;;4981052;28;20027;-78
2022/12/04 08:48:42;;;;;;;20.58;10.02;;;2.20;99.90;;;;;;4983610;28;20034;-78
2022/12/04 08:51:22;;;;;;;16.65;8.88;;;2.20;99.90;;;;;;4983080;28;20038;-80
2022/12/04 08:53:53;;;;;;;18.20;8.60;;;2.20;99.90;;;;;;4974952;28;20026;-79
2022/12/04 08:56:19;;;;;;;17.17;8.63;;;2.20;99.90;;;;;;4984092;28;20395;-80
2022/12/04 08:58:44;;;;;;;17.02;8.48;;;2.10;99.90;;;;;;4979851;28;20041;-78
2022/12/04 09:01:12;;;;;;;18.90;9.48;;;2.10;99.90;;;;;;4979311;28;20069;-78
2022/12/04 09:03:38;;;;;;;19.30;9.52;;;2.10;99.90;;;;;;4982757;28;20031;-78
2022/12/04 09:06:05;;;;;;;18.70;9.77;;;2.10;99.90;;;;;;4981108;28;20026;-84
2022/12/04 09:08:32;;;;;;;18.77;9.68;;;2.20;99.90;;;;;;4988251;28;20138;-86
2022/12/04 09:11:05;;;;;;;22.42;9.77;;;2.20;99.90;;;;;;4981536;28;20026;-83
2022/12/04 09:13:30;;;;;;;19.05;9.10;;;2.20;99.90;;;;;;4984264;28;20038;-85
2022/12/04 09:15:56;;;;;;;22.00;10.65;;;2.20;99.90;;;;;;4981661;28;20096;-77
2022/12/04 09:18:21;;;;;;;17.98;9.65;;;2.30;99.90;;;;;;4981918;28;20131;-78
2022/12/04 09:20:58;;;;;;;18.15;9.02;;;2.30;99.90;;;;;;4984931;28;20023;-77
2022/12/04 09:23:24;;;;;;;19.50;9.93;;;2.30;99.90;;;;;;4982886;28;20360;-77
2022/12/04 09:25:50;;;;;;;19.98;8.77;;;2.30;99.90;;;;;;4988274;28;20471;-77
2022/12/04 09:28:16;;;;;;;19.13;9.40;;;2.30;99.90;;;;;;4986440;28;20058;-76
2022/12/04 09:30:41;;;;;;;30.85;12.77;;;2.30;99.90;;;;;;4985119;28;20501;-76
2022/12/04 09:33:07;;;;;;;47.10;17.17;;;2.30;99.90;;;;;;4985217;28;20062;-76
2022/12/04 09:35:33;;;;;;;35.72;13.70;;;2.30;99.90;;;;;;4987544;28;20058;-76
2022/12/04 09:37:59;;;;;;;31.77;12.45;;;2.30;99.90;;;;;;4985174;28;20022;-76
2022/12/04 09:40:28;;;;;;;22.25;10.45;;;2.40;99.90;;;;;;4979707;28;20453;-76
2022/12/04 09:43:12;;;;;;;31.80;14.15;;;2.40;99.90;;;;;;4987590;28;20053;-76
2022/12/04 09:45:47;;;;;;;53.85;20.95;;;2.40;99.90;;;;;;4986299;28;20030;-77
2022/12/04 09:48:17;;;;;;;40.50;16.00;;;2.40;99.90;;;;;;4982474;28;20035;-77
2022/12/04 09:50:45;;;;;;;66.70;25.30;;;2.40;99.90;;;;;;4983453;28;20105;-76
2022/12/04 09:53:19;;;;;;;71.03;27.42;;;2.40;99.90;;;;;;4981825;28;20397;-76
2022/12/04 09:55:51;;;;;;;60.75;23.83;;;2.40;99.90;;;;;;4981615;28;20069;-77
2022/12/04 09:58:54;;;;;;;40.75;15.20;;;2.30;99.90;;;;;;4982891;28;20488;-77
2022/12/04 10:01:24;;;;;;;24.02;10.93;;;2.40;99.90;;;;;;4970051;28;20090;-76
2022/12/04 10:03:52;;;;;;;23.33;11.35;;;2.40;99.90;;;;;;4984318;28;20099;-77
2022/12/04 10:06:40;;;;;;;23.20;9.90;;;2.40;99.90;;;;;;4988995;28;20626;-76
2022/12/04 10:09:19;;;;;;;19.98;10.55;;;2.40;99.90;;;;;;4973267;28;20399;-77
2022/12/04 10:12:08;;;;;;;22.13;11.30;;;2.40;99.90;;;;;;4988672;28;20133;-77
2022/12/04 10:14:43;;;;;;;21.17;10.82;;;2.40;99.90;;;;;;4987310;28;20026;-77
2022/12/04 10:17:39;;;;;;;20.38;9.65;;;2.40;99.90;;;;;;4971553;28;20034;-77
2022/12/04 10:20:25;;;;;;;25.40;11.55;;;2.40;99.90;;;;;;4986115;28;20077;-76
2022/12/04 10:22:50;;;;;;;21.67;10.32;;;2.50;99.90;;;;;;4982406;28;20030;-76
2022/12/04 10:25:23;;;;;;;22.33;10.57;;;2.50;99.90;;;;;;4984875;28;20022;-77
2022/12/04 10:28:14;;;;;;;23.25;10.85;;;2.50;99.90;;;;;;4987130;28;20062;-76
2022/12/04 10:30:42;;;;;;;20.60;9.85;;;2.50;99.90;;;;;;4985503;28;20026;-77
2022/12/04 10:33:17;;;;;;;24.88;11.63;;;2.50;99.90;;;;;;4985343;28;20166;-76
2022/12/04 10:35:46;;;;;;;22.70;10.70;;;2.50;99.90;;;;;;4985640;28;20038;-76
2022/12/04 10:38:32;;;;;;;22.30;11.25;;;2.50;99.90;;;;;;4982345;28;20542;-77
2022/12/04 10:41:13;;;;;;;27.08;11.48;;;2.60;99.90;;;;;;4982620;28;20199;-77
2022/12/04 10:43:47;;;;;;;24.15;11.15;;;2.60;99.90;;;;;;5006836;23;20050;-78
2022/12/04 10:46:25;;;;;;;21.60;10.20;;;2.60;99.90;;;;;;5019888;28;20029;-78
2022/12/04 10:48:58;;;;;;;27.63;11.85;;;2.50;99.90;;;;;;5018083;28;20037;-79
2022/12/04 10:51:33;;;;;;;24.27;11.43;;;2.60;99.90;;;;;;5017393;28;20049;-78
2022/12/04 10:53:58;;;;;;;25.80;12.98;;;2.60;99.90;;;;;;5017524;28;20038;-77
2022/12/04 10:56:25;;;;;;;21.65;11.48;;;2.70;99.90;;;;;;5020035;28;20026;-78
2022/12/04 10:58:55;;;;;;;22.33;10.15;;;2.70;99.90;;;;;;5014818;28;20038;-78
2022/12/04 11:01:21;;;;;;;24.38;12.15;;;2.70;99.90;;;;;;5017853;28;20022;-77
2022/12/04 11:04:09;;;;;;;24.05;11.38;;;2.70;99.90;;;;;;5013593;28;20089;-78
2022/12/04 11:06:35;;;;;;;22.83;10.50;;;2.70;99.90;;;;;;5014894;28;20026;-78
2022/12/04 11:09:04;;;;;;;25.88;12.02;;;2.70;99.90;;;;;;5013711;28;20033;-77
2022/12/04 11:11:32;;;;;;;25.15;11.70;;;2.70;99.90;;;;;;5014381;28;20030;-77
2022/12/04 11:14:12;;;;;;;23.15;11.95;;;2.70;99.90;;;;;;5017171;28;20501;-78
2022/12/04 11:16:43;;;;;;;23.77;10.82;;;2.70;99.90;;;;;;5014501;28;20044;-78
2022/12/04 11:19:22;;;;;;;20.63;10.00;;;2.70;99.90;;;;;;5010769;28;20495;-77
2022/12/04 11:21:51;;;;;;;24.80;11.20;;;2.70;99.90;;;;;;5017662;28;20048;-75
2022/12/04 11:24:38;;;;;;;23.92;10.68;;;2.70;99.90;;;;;;5003521;28;20026;-77
2022/12/04 11:27:20;;;;;;;22.40;10.88;;;2.70;99.90;;;;;;5004014;28;20134;-77
2022/12/04 11:29:47;;;;;;;24.52;11.05;;;2.80;99.90;;;;;;5014339;28;20108;-77
2022/12/04 11:32:40;;;;;;;20.50;10.43;;;2.80;99.90;;;;;;5014100;28;20090;-74
2022/12/04 11:35:21;;;;;;;20.27;10.17;;;2.80;99.90;;;;;;5012844;28;20033;-74
2022/12/04 11:38:10;;;;;;;22.45;11.57;;;2.80;99.90;;;;;;5014149;28;20053;-75
2022/12/04 11:40:36;;;;;;;26.25;11.85;;;2.80;99.90;;;;;;5013850;28;20115;-75
2022/12/04 11:43:12;;;;;;;23.23;11.05;;;2.90;99.90;;;;;;5013445;28;20102;-75
2022/12/04 11:45:38;;;;;;;25.45;11.73;;;2.80;99.90;;;;;;5002258;28;20037;-77
2022/12/04 11:48:14;;;;;;;29.52;13.00;;;2.80;99.90;;;;;;5006880;28;20097;-76
2022/12/04 11:50:53;;;;;;;26.90;11.75;;;2.80;99.90;;;;;;5013209;28;20510;-75
2022/12/04 11:53:49;;;;;;;24.00;11.10;;;2.80;99.90;;;;;;5013081;28;20037;-76
2022/12/04 11:56:38;;;;;;;23.05;10.98;;;2.80;99.90;;;;;;5016165;28;20038;-75
2022/12/04 11:59:23;;;;;;;26.90;12.10;;;2.80;99.90;;;;;;5006869;28;20037;-74
2022/12/04 12:02:13;;;;;;;31.60;13.13;;;2.80;99.90;;;;;;5007364;28;20022;-74
2022/12/04 12:04:42;;;;;;;30.55;13.20;;;2.80;99.90;;;;;;5000881;28;20354;-74
2022/12/04 12:07:56;;;;;;;30.45;12.77;;;2.80;99.90;;;;;;5005895;28;20033;-74
2022/12/04 12:11:01;;;;;;;25.00;11.40;;;2.80;99.90;;;;;;4996272;28;20034;-74
2022/12/04 12:13:54;;;;;;;26.23;12.30;;;2.80;99.90;;;;;;5006285;28;20030;-75
2022/12/04 12:16:39;;;;;;;27.80;13.10;;;2.70;99.90;;;;;;5005928;28;20383;-75
2022/12/04 12:19:07;;;;;;;27.55;12.52;;;2.70;99.90;;;;;;5007234;28;20030;-76
2022/12/04 12:21:51;;;;;;;34.15;13.85;;;2.70;99.90;;;;;;5005219;28;20026;-76
2022/12/04 12:24:31;;;;;;;32.00;13.45;;;2.70;99.90;;;;;;5008736;28;20025;-75
2022/12/04 12:27:28;;;;;;;29.05;13.57;;;2.70;99.90;;;;;;5002384;28;20038;-75
2022/12/04 12:30:08;;;;;;;36.58;16.08;;;2.70;99.90;;;;;;5004950;28;20117;-74
2022/12/04 12:32:57;;;;;;;37.95;14.20;;;2.70;99.90;;;;;;5003016;28;20037;-75
2022/12/04 12:35:46;;;;;;;26.35;12.23;;;2.70;99.90;;;;;;5002120;28;20087;-77
2022/12/04 12:38:49;;;;;;;41.58;17.70;;;2.70;99.90;;;;;;4999610;28;20056;-75
2022/12/04 12:41:16;;;;;;;31.10;13.20;;;2.70;99.90;;;;;;5001941;28;20038;-74
2022/12/04 12:43:47;;;;;;;28.80;13.18;;;2.70;99.90;;;;;;5003809;28;20038;-76
2022/12/04 12:46:38;;;;;;;37.13;16.35;;;2.80;99.90;;;;;;5007165;28;20034;-75
2022/12/04 12:49:16;;;;;;;29.60;14.73;;;2.80;99.90;;;;;;4998759;28;20393;-75
2022/12/04 12:51:57;;;;;;;33.72;13.25;;;2.80;99.90;;;;;;5008257;28;20034;-74
2022/12/04 12:54:29;;;;;;;25.23;11.60;;;2.80;99.90;;;;;;5001881;28;20068;-74
2022/12/04 12:57:25;;;;;;;29.80;12.90;;;2.80;99.90;;;;;;5003638;28;20044;-76
2022/12/04 13:00:03;;;;;;;28.63;12.68;;;2.80;99.90;;;;;;5002900;28;20046;-76
2022/12/04 13:02:38;;;;;;;26.50;12.93;;;2.90;99.90;;;;;;5006865;28;20069;-75
2022/12/04 13:05:10;;;;;;;27.23;12.15;;;2.90;99.90;;;;;;5005624;28;20045;-75
2022/12/04 13:07:57;;;;;;;30.90;12.40;;;2.90;99.90;;;;;;5004815;28;20018;-76
2022/12/04 13:10:32;;;;;;;26.85;11.85;;;2.90;99.90;;;;;;5006883;28;20069;-76
2022/12/04 13:13:14;;;;;;;24.02;10.93;;;2.90;99.90;;;;;;5001531;28;20022;-76
2022/12/04 13:15:45;;;;;;;22.65;10.07;;;2.90;99.90;;;;;;5008258;28;20100;-76
2022/12/04 13:18:40;;;;;;;21.35;10.23;;;2.90;99.90;;;;;;5006024;28;20126;-76
2022/12/04 13:21:07;;;;;;;24.92;11.85;;;2.90;99.90;;;;;;5005931;28;20042;-76
2022/12/04 13:24:07;;;;;;;24.13;11.25;;;3.00;99.90;;;;;;5009524;28;20022;-76